MUHA/HAV METAR and TAF weather

Enter ICAO airport designator
Station Type Date Time Source
MUHA METAR 2021/10/24 22:55 UTC NOAA

MUHA 242255Z 20003KT 9000 FEW025 27/24 Q1014


Station Type Date Time Source
MUHA Decoded METAR 2021/10/24 22:55 UTC NOAA

Aeropuerto Jose Marti, Rancho-Boyeros, Habana, Cuba (MUHA) 22-59N 082-24W 75M
Oct 24, 2021 - 06:55 PM EDT / 2021.10.24 2255 UTC
Wind: from the SSW (200 degrees) at 3 MPH (3 KT):0
Visibility: 5 mile(s):0
Sky conditions: mostly clear
Temperature: 80 F (27 C)
Dew Point: 75 F (24 C)
Relative Humidity: 83%
Pressure (altimeter): 29.94 in. Hg (1014 hPa)
ob: MUHA 242255Z 20003KT 9000 FEW025 27/24 Q1014
cycle: 23

Station Type Date Time Source
MUHA TAF 2021/10/24 18:03 UTC NOAA

TAF MUHA 241700Z 2418/2518 17010KT 9000 SCT030
BECMG 2501/2503 VRB03KT
BECMG 2514/2516 18010KT

Example: see airport list